Time;durP1;ratioP1;P1;durP2;ratioP2;P2;SDS_P1;SDS_P2;PMS_P1;PMS_P2;Temp;Humidity;BMP_temperature;BMP_pressure;BME280_temperature;BME280_humidity;BME280_pressure;Samples;Min_cycle;Max_cycle;Signal;HPM_P1;HPM_P2
2020/12/10 00:01:57;;;;;;;7.17;4.90;;;;;;;4.90;97.10;98153.69;4982867;28;20057;-83
2020/12/10 00:05:09;;;;;;;5.22;3.75;;;;;;;4.88;97.15;98151.19;4982261;28;20054;-83
2020/12/10 00:08:20;;;;;;;7.37;4.27;;;;;;;4.91;96.42;98145.63;4982441;28;20042;-85
2020/12/10 00:11:30;;;;;;;5.97;4.83;;;;;;;4.94;97.28;98147.13;4993831;28;20034;-84
2020/12/10 00:14:43;;;;;;;7.43;4.55;;;;;;;4.92;97.07;98147.28;4993595;28;20034;-84
2020/12/10 00:17:55;;;;;;;8.57;4.67;;;;;;;4.89;97.15;98150.22;4998052;28;20062;-84
2020/12/10 00:21:07;;;;;;;6.67;4.60;;;;;;;5.01;97.15;98156.88;4992962;28;20045;-84
2020/12/10 00:24:20;;;;;;;9.03;5.53;;;;;;;4.94;96.92;98147.94;4982586;28;20424;-84
2020/12/10 00:27:45;;;;;;;5.40;4.00;;;;;;;4.96;96.61;98159.16;5001746;28;20030;-83
2020/12/10 00:30:56;;;;;;;8.65;4.30;;;;;;;5.01;96.69;98150.75;4993601;28;20518;-83
2020/12/10 00:34:11;;;;;;;4.80;3.93;;;;;;;5.03;96.63;98144.34;4971288;28;20046;-83
2020/12/10 00:37:22;;;;;;;6.40;4.47;;;;;;;5.01;97.00;98154.22;4985953;28;20057;-83
2020/12/10 00:40:33;;;;;;;5.70;4.47;;;;;;;5.15;96.03;98144.03;4982198;28;20046;-83
2020/12/10 00:43:45;;;;;;;7.17;4.20;;;;;;;5.10;96.18;98149.78;4981683;28;20050;-83
2020/12/10 00:46:56;;;;;;;5.97;4.53;;;;;;;5.06;96.36;98144.03;4981548;28;20038;-84
2020/12/10 00:50:09;;;;;;;7.70;3.70;;;;;;;5.13;95.75;98149.50;4992442;28;20042;-83
2020/12/10 00:53:22;;;;;;;5.80;4.23;;;;;;;5.08;96.30;98144.66;4971296;28;20038;-83
2020/12/10 00:56:40;;;;;;;5.43;4.00;;;;;;;5.13;95.59;98148.66;4992968;28;20038;-83
2020/12/10 00:59:52;;;;;;;4.93;3.77;;;;;;;5.08;96.03;98147.31;4991870;28;20038;-83
2020/12/10 01:03:03;;;;;;;6.10;4.10;;;;;;;5.18;96.24;98151.66;4992628;28;20042;-84
2020/12/10 01:06:15;;;;;;;5.97;3.90;;;;;;;5.12;95.44;98162.84;4981298;28;20038;-84
2020/12/10 01:09:27;;;;;;;4.93;3.60;;;;;;;5.09;95.38;98164.81;4969535;28;20057;-84
2020/12/10 01:12:43;;;;;;;5.13;3.33;;;;;;;5.19;96.17;98170.00;4993156;28;20051;-84
2020/12/10 01:15:57;;;;;;;5.27;3.53;;;;;;;5.33;96.46;98172.00;4970498;28;20051;-83
2020/12/10 01:19:08;;;;;;;4.67;3.57;;;;;;;5.22;95.92;98174.13;4980764;28;20042;-83
2020/12/10 01:22:20;;;;;;;4.55;2.58;;;;;;;5.18;94.91;98172.78;4985682;28;20057;-83
2020/12/10 01:25:31;;;;;;;3.70;3.30;;;;;;;5.16;96.18;98177.41;4981393;28;20046;-83
2020/12/10 01:28:43;;;;;;;6.90;3.17;;;;;;;5.12;95.73;98178.69;4981326;28;20470;-83
2020/12/10 01:31:55;;;;;;;4.07;2.67;;;;;;;5.12;95.70;98171.59;4969418;28;20050;-83
2020/12/10 01:35:09;;;;;;;5.37;3.23;;;;;;;5.01;95.80;98170.09;4991627;28;20049;-82
2020/12/10 01:38:21;;;;;;;4.47;3.10;;;;;;;4.97;96.29;98165.25;4985696;28;20050;-82
2020/12/10 01:41:34;;;;;;;3.47;2.90;;;;;;;5.00;95.88;98162.31;4980874;28;20045;-83
2020/12/10 01:44:46;;;;;;;5.33;3.60;;;;;;;4.87;96.12;98159.28;4980771;28;20042;-83
2020/12/10 01:47:58;;;;;;;4.40;3.10;;;;;;;4.93;95.72;98159.50;4980697;28;20046;-83
2020/12/10 01:51:11;;;;;;;5.30;2.93;;;;;;;4.93;95.78;98148.94;4968925;28;20374;-83
2020/12/10 01:54:22;;;;;;;3.60;2.97;;;;;;;5.03;96.69;98149.63;4992439;28;20410;-84
2020/12/10 01:57:33;;;;;;;3.10;2.43;;;;;;;5.25;95.45;98144.72;4980455;28;20050;-85
2020/12/10 02:00:44;;;;;;;4.47;2.63;;;;;;;5.09;94.95;98140.22;4981478;28;20398;-83
2020/12/10 02:03:58;;;;;;;4.13;2.38;;;;;;;4.98;94.99;98135.22;4980473;28;20054;-84
2020/12/10 02:07:10;;;;;;;4.40;2.53;;;;;;;4.94;95.13;98126.81;4974611;28;20053;-83
2020/12/10 02:10:21;;;;;;;4.00;2.90;;;;;;;4.88;95.35;98130.06;4990303;28;20502;-83
2020/12/10 02:13:31;;;;;;;;;;;;;;;4.73;95.40;98134.28;4996864;28;20069;-83
2020/12/10 02:16:41;;;;;;;5.13;2.90;;;;;;;4.91;94.90;98132.41;4984167;28;19921;-83
2020/12/10 02:19:52;;;;;;;2.67;2.37;;;;;;;4.89;95.50;98134.38;4972668;28;20069;-82
2020/12/10 02:23:05;;;;;;;2.42;2.20;;;;;;;4.92;94.96;98133.22;4995931;28;20382;-83
2020/12/10 02:26:16;;;;;;;3.03;2.13;;;;;;;4.85;95.56;98127.75;4984634;28;20046;-83
2020/12/10 02:29:27;;;;;;;2.92;2.60;;;;;;;4.87;95.82;98131.06;4996119;28;20049;-84
2020/12/10 02:32:59;;;;;;;3.57;2.53;;;;;;;4.89;96.10;98134.38;4995215;28;20038;-83
2020/12/10 02:36:10;;;;;;;2.93;2.00;;;;;;;5.02;96.49;98132.13;4984494;28;20050;-83
2020/12/10 02:39:23;;;;;;;3.77;3.00;;;;;;;5.01;96.67;98133.09;4995537;28;20054;-83
2020/12/10 02:42:34;;;;;;;3.93;2.67;;;;;;;5.04;96.33;98130.16;4995190;28;20042;-83
2020/12/10 02:45:46;;;;;;;4.32;2.35;;;;;;;5.04;96.67;98130.16;4984127;28;20047;-83
2020/12/10 02:48:58;;;;;;;3.03;2.03;;;;;;;5.06;96.76;98132.63;4988855;28;20053;-83
2020/12/10 02:52:10;;;;;;;2.60;2.23;;;;;;;5.38;97.19;98118.66;4984211;28;20031;-84
2020/12/10 02:55:22;;;;;;;2.10;1.50;;;;;;;5.41;93.72;98115.72;4994489;28;20043;-84
2020/12/10 02:58:34;;;;;;;2.10;1.90;;;;;;;5.31;94.63;98120.31;4983825;28;20065;-83
2020/12/10 03:01:45;;;;;;;3.57;1.60;;;;;;;5.30;93.14;98119.50;4988762;28;20417;-84
2020/12/10 03:04:57;;;;;;;1.70;1.60;;;;;;;5.32;93.24;98121.94;4971903;28;20061;-83
2020/12/10 03:08:08;;;;;;;2.15;1.50;;;;;;;5.29;93.51;98114.34;4988494;28;20402;-83
2020/12/10 03:11:21;;;;;;;1.83;1.53;;;;;;;5.34;93.57;98104.09;4994903;28;20404;-83
2020/12/10 03:14:34;;;;;;;1.97;1.50;;;;;;;5.23;93.99;98107.91;4972045;28;20406;-83
2020/12/10 03:17:46;;;;;;;3.43;2.30;;;;;;;5.24;94.84;98103.44;4994581;28;20030;-83
2020/12/10 03:20:57;;;;;;;1.70;1.60;;;;;;;5.32;94.24;98095.50;4995306;28;20046;-83
2020/12/10 03:24:12;;;;;;;2.17;1.97;;;;;;;5.37;94.41;98093.22;4972659;28;20057;-83
2020/12/10 03:27:24;;;;;;;1.80;1.60;;;;;;;5.45;95.03;98101.16;4972243;28;20043;-83
2020/12/10 03:30:36;;;;;;;2.43;1.50;;;;;;;5.50;93.93;98098.84;4983442;28;20035;-83
2020/12/10 03:33:49;;;;;;;1.80;1.53;;;;;;;5.55;93.97;98096.53;4971504;28;20058;-82
2020/12/10 03:37:04;;;;;;;2.70;1.60;;;;;;;5.49;94.10;98102.50;4971261;28;20051;-83
2020/12/10 03:40:15;;;;;;;1.70;1.50;;;;;;;5.52;94.14;98107.47;4988065;28;20042;-83
2020/12/10 03:43:26;;;;;;;2.63;1.63;;;;;;;5.52;93.96;98104.81;4982785;28;20042;-83
2020/12/10 03:46:37;;;;;;;2.80;1.50;;;;;;;5.70;94.20;98104.66;4982989;28;20049;-84
2020/12/10 03:49:49;;;;;;;2.50;1.58;;;;;;;5.64;93.60;98102.69;4982938;28;20042;-84
2020/12/10 03:53:00;;;;;;;1.73;1.40;;;;;;;5.65;92.60;98102.50;4994519;28;20038;-84
2020/12/10 03:56:10;;;;;;;3.07;1.30;;;;;;;5.62;92.83;98094.91;4994100;28;20035;-84
2020/12/10 03:59:21;;;;;;;1.40;1.20;;;;;;;5.62;92.51;98100.19;4993795;28;20038;-84
2020/12/10 04:02:36;;;;;;;2.27;1.40;;;;;;;5.67;91.75;98092.56;4971698;28;20089;-83
2020/12/10 04:05:49;;;;;;;2.17;1.57;;;;;;;5.60;92.06;98094.22;4993059;28;20413;-83
2020/12/10 04:09:02;;;;;;;3.13;1.50;;;;;;;5.57;92.95;98088.44;4971146;28;20042;-83
2020/12/10 04:12:14;;;;;;;4.97;1.48;;;;;;;5.64;93.37;98100.03;4993142;28;20394;-83
2020/12/10 04:15:25;;;;;;;1.67;1.57;;;;;;;5.59;94.51;98095.22;4985832;28;20058;-83
2020/12/10 04:18:42;;;;;;;2.10;1.40;;;;;;;5.56;93.65;98095.53;4981913;28;20506;-82
2020/12/10 04:21:54;;;;;;;3.60;1.70;;;;;;;5.51;94.63;98092.59;4982037;28;20046;-83
2020/12/10 04:25:08;;;;;;;3.07;1.90;;;;;;;5.49;94.95;98096.38;4993330;28;20039;-82
2020/12/10 04:28:21;;;;;;;2.50;1.53;;;;;;;5.48;95.09;98098.19;4993198;28;20034;-83
2020/12/10 04:31:38;;;;;;;2.30;1.40;;;;;;;5.44;94.55;98092.41;4971732;28;20046;-83
2020/12/10 04:34:49;;;;;;;1.43;0.90;;;;;;;5.61;93.08;98095.06;4969434;28;20488;-83
2020/12/10 04:38:01;;;;;;;1.75;1.00;;;;;;;5.65;92.70;98094.59;4982082;28;20042;-84
2020/12/10 04:41:13;;;;;;;1.48;1.38;;;;;;;5.75;92.71;98089.94;4982154;28;20500;-85
2020/12/10 04:44:25;;;;;;;1.30;1.10;;;;;;;6.04;93.05;98096.56;4992631;28;20038;-85
2020/12/10 04:47:42;;;;;;;1.53;1.13;;;;;;;6.00;91.79;98100.56;4982768;28;20038;-85
2020/12/10 04:50:59;;;;;;;1.20;1.10;;;;;;;5.98;91.89;98097.25;4981574;28;20034;-84
2020/12/10 04:54:11;;;;;;;1.93;1.27;;;;;;;5.92;91.41;98104.00;4986360;28;20058;-84
2020/12/10 04:57:27;;;;;;;2.73;1.43;;;;;;;5.85;91.31;98107.47;4980285;28;20054;-84
2020/12/10 05:00:39;;;;;;;1.57;1.37;;;;;;;5.86;90.25;98106.47;4981944;28;20050;-83
2020/12/10 05:03:50;;;;;;;1.20;1.10;;;;;;;5.86;90.05;98099.38;4981346;28;20049;-84
2020/12/10 05:07:03;;;;;;;1.50;1.40;;;;;;;5.93;89.66;98102.19;4992717;28;20500;-83
2020/12/10 05:10:17;;;;;;;1.23;0.83;;;;;;;6.00;88.84;98105.84;4992873;28;20049;-84
2020/12/10 05:13:28;;;;;;;1.48;1.20;;;;;;;5.97;89.33;98106.16;4992602;28;20050;-83
2020/12/10 05:16:39;;;;;;;1.63;1.10;;;;;;;6.06;90.42;98111.28;4980069;28;20070;-83
2020/12/10 05:20:06;;;;;;;2.17;1.00;;;;;;;5.97;90.33;98117.56;4993039;28;20042;-84
2020/12/10 05:23:30;;;;;;;1.20;1.07;;;;;;;6.01;89.94;98118.09;5003383;28;20061;-84
2020/12/10 05:26:42;;;;;;;1.07;0.97;;;;;;;6.00;89.95;98121.72;4969390;28;20042;-84
2020/12/10 05:29:54;;;;;;;1.88;1.20;;;;;;;6.30;92.96;98117.53;4992834;28;20038;-85
2020/12/10 05:33:16;;;;;;;2.10;0.90;;;;;;;6.89;87.88;98113.53;4991896;28;20050;-86
2020/12/10 05:36:32;;;;;;;1.30;1.02;;;;;;;6.47;88.57;98121.81;4982021;28;20038;-84
2020/12/10 05:40:00;;;;;;;1.40;1.30;;;;;;;6.25;89.63;98125.16;4991700;28;20046;-85
2020/12/10 05:43:25;;;;;;;1.17;1.08;;;;;;;6.19;89.56;98133.75;4996053;28;20031;-84
2020/12/10 05:46:39;;;;;;;1.43;0.97;;;;;;;6.10;90.13;98133.78;4967986;28;20062;-84
2020/12/10 05:49:51;;;;;;;1.03;0.93;;;;;;;6.06;90.36;98131.63;4992699;28;20038;-83
2020/12/10 05:53:25;;;;;;;1.63;1.13;;;;;;;5.97;90.63;98132.63;4981850;28;20122;-84
2020/12/10 05:56:53;;;;;;;2.63;1.23;;;;;;;6.11;90.53;98129.31;4979571;28;20417;-84
2020/12/10 06:00:07;;;;;;;1.63;1.17;;;;;;;6.02;91.57;98122.34;4991306;28;20045;-83
2020/12/10 06:03:19;;;;;;;1.47;1.37;;;;;;;5.96;91.88;98120.38;4979388;28;20058;-83
2020/12/10 06:06:33;;;;;;;1.77;1.67;;;;;;;6.06;91.15;98121.88;4980789;28;20033;-83
2020/12/10 06:09:44;;;;;;;3.33;1.33;;;;;;;6.01;91.12;98123.38;4970503;28;20046;-84
2020/12/10 06:12:55;;;;;;;2.07;1.30;;;;;;;6.04;90.70;98129.13;4980943;28;20042;-84
2020/12/10 06:16:22;;;;;;;1.00;0.95;;;;;;;6.00;92.08;98130.47;5002097;28;20073;-84
2020/12/10 06:19:37;;;;;;;2.03;1.20;;;;;;;6.41;91.64;98130.41;4980041;28;20057;-85
2020/12/10 06:22:48;;;;;;;1.30;1.20;;;;;;;6.74;90.09;98125.84;4991568;28;20511;-86
2020/12/10 06:26:21;;;;;;;1.83;1.23;;;;;;;6.40;89.22;98129.59;4980594;28;20034;-84
2020/12/10 06:29:35;;;;;;;1.73;1.10;;;;;;;6.27;90.00;98126.63;4994710;28;20050;-84
2020/12/10 06:32:51;;;;;;;1.50;1.40;;;;;;;6.25;89.54;98133.09;4980545;28;20065;-84
2020/12/10 06:36:24;;;;;;;2.73;1.33;;;;;;;6.23;90.27;98133.28;4979826;28;20046;-84
2020/12/10 06:39:41;;;;;;;1.52;1.40;;;;;;;6.19;91.10;98134.59;4992613;28;20052;-84
2020/12/10 06:42:55;;;;;;;1.48;1.38;;;;;;;6.23;91.22;98143.03;4979971;28;20042;-84
2020/12/10 06:46:06;;;;;;;2.20;1.60;;;;;;;6.22;91.03;98139.56;4980146;28;20047;-83
2020/12/10 06:49:32;;;;;;;2.40;1.70;;;;;;;6.23;91.79;98130.63;4991019;28;20058;-84
2020/12/10 06:53:20;;;;;;;1.40;1.30;;;;;;;6.29;92.27;98135.22;4991476;28;20038;-83
2020/12/10 06:56:33;;;;;;;2.03;1.43;;;;;;;6.31;91.74;98133.25;4985738;28;20039;-83
2020/12/10 06:59:47;;;;;;;2.97;1.80;;;;;;;6.28;91.64;98133.56;4994250;28;20057;-83
2020/12/10 07:03:23;;;;;;;2.33;1.60;;;;;;;6.28;91.28;98136.22;4984147;28;20381;-83
2020/12/10 07:06:34;;;;;;;1.70;1.40;;;;;;;6.24;91.75;98136.75;4971527;28;20085;-83
2020/12/10 07:10:02;;;;;;;2.10;1.88;;;;;;;6.25;91.05;98141.88;4983583;28;20038;-85
2020/12/10 07:13:35;;;;;;;2.65;1.83;;;;;;;6.43;90.37;98139.84;4986060;28;20492;-84
2020/12/10 07:16:48;;;;;;;2.87;2.07;;;;;;;6.41;90.17;98138.34;4983961;28;20520;-84
2020/12/10 07:20:02;;;;;;;2.47;1.67;;;;;;;6.47;90.13;98135.88;5005284;28;20486;-84
2020/12/10 07:23:14;;;;;;;1.83;1.50;;;;;;;6.59;90.28;98138.16;4983553;28;20052;-84
2020/12/10 07:26:25;;;;;;;5.97;1.52;;;;;;;6.64;90.99;98141.13;4984012;28;20050;-84
2020/12/10 07:29:37;;;;;;;1.83;1.67;;;;;;;6.69;90.99;98149.38;4983540;28;20049;-84
2020/12/10 07:32:53;;;;;;;4.30;2.73;;;;;;;6.62;90.87;98157.16;4982962;28;20042;-84
2020/12/10 07:36:08;;;;;;;6.10;3.03;;;;;;;6.55;90.17;98150.91;4993865;28;20045;-84
2020/12/10 07:39:37;;;;;;;4.22;2.50;;;;;;;6.60;92.46;98155.72;4994008;28;20053;-84
2020/12/10 07:42:48;;;;;;;3.17;2.57;;;;;;;6.57;91.63;98151.56;4987373;28;20046;-83
2020/12/10 07:46:00;;;;;;;5.63;2.73;;;;;;;6.52;91.54;98153.88;4993859;28;20046;-84
2020/12/10 07:49:11;;;;;;;;;;;;;;;6.37;92.02;98160.88;4983666;28;20031;-83
2020/12/10 07:52:21;;;;;;;4.00;2.67;;;;;;;6.50;92.08;98162.00;4982852;28;19925;-83
2020/12/10 07:55:55;;;;;;;2.42;2.22;;;;;;;6.60;92.36;98155.72;4971763;28;20489;-83
2020/12/10 07:59:13;;;;;;;5.53;2.15;;;;;;;6.88;91.67;98154.28;4982249;28;20482;-84
2020/12/10 08:02:58;;;;;;;4.03;2.20;;;;;;;6.93;88.65;98159.91;4983827;28;20509;-86
2020/12/10 08:06:13;;;;;;;2.92;1.90;;;;;;;7.01;89.33;98169.63;4983025;28;20493;-84
2020/12/10 08:09:29;;;;;;;4.07;2.17;;;;;;;6.89;88.92;98167.38;5008228;28;20062;-85
2020/12/10 08:12:40;;;;;;;3.58;2.55;;;;;;;7.04;89.51;98159.53;4993675;28;20485;-84
2020/12/10 08:15:53;;;;;;;3.03;2.47;;;;;;;7.33;89.62;98171.31;4982623;28;20046;-84
2020/12/10 08:19:25;;;;;;;3.80;2.55;;;;;;;7.46;87.41;98163.63;4987318;28;20054;-84
2020/12/10 08:22:38;;;;;;;4.80;2.70;;;;;;;7.68;87.55;98167.28;4982931;28;20038;-84
2020/12/10 08:26:14;;;;;;;2.60;1.92;;;;;;;7.76;86.24;98169.91;4992122;28;20050;-84
2020/12/10 08:29:26;;;;;;;4.30;2.28;;;;;;;7.85;85.90;98169.69;4992929;28;20382;-84
2020/12/10 08:32:58;;;;;;;3.08;2.00;;;;;;;7.88;84.76;98165.84;4982406;28;20054;-84
2020/12/10 08:36:10;;;;;;;3.42;1.95;;;;;;;7.93;84.26;98179.41;4984930;28;20038;-84
2020/12/10 08:39:33;;;;;;;2.22;2.03;;;;;;;8.03;86.01;98173.84;4981657;28;20051;-84
2020/12/10 08:42:45;;;;;;;3.90;2.10;;;;;;;8.36;85.15;98177.94;4981236;28;20042;-84
2020/12/10 08:46:00;;;;;;;2.08;1.70;;;;;;;8.36;82.43;98188.56;4993532;28;20041;-85
2020/12/10 08:49:22;;;;;;;2.80;2.15;;;;;;;8.20;81.13;98186.84;4992490;28;20524;-84
2020/12/10 08:52:33;;;;;;;2.20;1.77;;;;;;;8.14;82.89;98189.38;4992992;28;20038;-85
2020/12/10 08:55:49;;;;;;;3.92;2.10;;;;;;;8.15;82.97;98194.50;5003448;28;20405;-85
2020/12/10 08:59:02;;;;;;;2.08;1.77;;;;;;;8.33;84.09;98204.84;4992381;28;20034;-85
2020/12/10 09:02:13;;;;;;;2.33;2.03;;;;;;;8.49;83.79;98195.94;4992276;28;20049;-84
2020/12/10 09:05:25;;;;;;;3.33;2.47;;;;;;;8.54;82.97;98207.66;4992288;28;20057;-84
2020/12/10 09:08:38;;;;;;;2.38;2.10;;;;;;;8.72;82.43;98201.19;4981218;28;20401;-84
2020/12/10 09:11:50;;;;;;;2.95;2.70;;;;;;;8.93;84.08;98202.13;4981969;28;20049;-84
2020/12/10 09:15:03;;;;;;;13.75;2.55;;;;;;;8.97;82.97;98202.56;4992039;28;20054;-84
2020/12/10 09:18:15;;;;;;;2.83;2.63;;;;;;;8.92;82.39;98218.25;4992824;28;20050;-84
2020/12/10 09:21:35;;;;;;;3.10;2.63;;;;;;;9.01;81.85;98220.63;4992192;28;20042;-84
2020/12/10 09:24:50;;;;;;;3.15;2.85;;;;;;;8.93;80.29;98225.22;4970178;28;20042;-85
2020/12/10 09:28:02;;;;;;;4.70;3.50;;;;;;;8.98;80.05;98220.16;4979657;28;20050;-84
2020/12/10 09:31:17;;;;;;;13.02;6.45;;;;;;;8.64;82.45;98213.53;4981043;28;20508;-85
2020/12/10 09:34:28;;;;;;;6.85;4.93;;;;;;;8.63;82.72;98205.72;4980824;28;20572;-84
2020/12/10 09:37:49;;;;;;;6.72;4.55;;;;;;;8.95;81.54;98204.59;4981763;28;20053;-84
2020/12/10 09:41:01;;;;;;;9.60;6.20;;;;;;;9.23;81.30;98208.25;4992991;28;20038;-84
2020/12/10 09:44:13;;;;;;;17.20;9.43;;;;;;;9.23;82.29;98197.59;4980991;28;20042;-84
2020/12/10 09:47:24;;;;;;;16.05;10.13;;;;;;;9.23;81.61;98196.78;4991893;28;20053;-84
2020/12/10 09:50:37;;;;;;;21.60;12.80;;;;;;;8.77;83.15;98199.63;4959180;28;20043;-84
2020/12/10 09:54:01;;;;;;;20.17;13.13;;;;;;;8.96;86.08;98193.78;4992048;28;20046;-84
2020/12/10 09:57:30;;;;;;;20.83;12.38;;;;;;;8.50;83.75;98190.41;4980898;28;20381;-84
2020/12/10 10:00:48;;;;;;;21.48;13.18;;;;;;;8.50;84.51;98184.25;4984228;28;20050;-84
2020/12/10 10:04:04;;;;;;;25.08;14.45;;;;;;;8.76;84.91;98182.03;4981180;28;20470;-83
2020/12/10 10:07:17;;;;;;;21.92;13.30;;;;;;;8.69;83.72;98189.91;4980571;28;20049;-85
2020/12/10 10:10:28;;;;;;;23.00;13.98;;;;;;;8.78;84.18;98187.16;4969978;28;20049;-84
2020/12/10 10:13:42;;;;;;;23.42;13.25;;;;;;;8.56;84.55;98172.94;4991486;28;20046;-83
2020/12/10 10:16:59;;;;;;;22.10;12.30;;;;;;;8.67;82.83;98175.16;4992207;28;20397;-85
2020/12/10 10:20:10;;;;;;;18.30;11.40;;;;;;;8.59;82.71;98176.06;4980409;28;20509;-82
2020/12/10 10:23:29;;;;;;;16.65;11.15;;;;;;;8.41;83.65;98177.38;5008846;28;20034;-81
2020/12/10 10:26:50;;;;;;;20.50;12.45;;;;;;;8.54;82.15;98167.78;4979436;28;20057;-83
2020/12/10 10:30:12;;;;;;;22.08;13.00;;;;;;;8.98;82.50;98166.97;4969039;28;20042;-84
2020/12/10 10:33:24;;;;;;;20.70;12.77;;;;;;;8.88;81.96;98167.25;4994218;28;20039;-84
2020/12/10 10:36:36;;;;;;;;;;;;;;;9.16;83.37;98164.78;4984188;28;20502;-85
2020/12/10 10:39:47;;;;;;;20.90;12.48;;;;;;;9.50;82.20;98166.84;4994961;28;20297;-84
2020/12/10 10:43:00;;;;;;;21.77;13.70;;;;;;;9.44;84.38;98162.25;4983856;28;20034;-84
2020/12/10 10:46:22;;;;;;;22.95;12.55;;;;;;;9.34;83.29;98162.53;4984720;28;20042;-84
2020/12/10 10:49:53;;;;;;;21.83;12.57;;;;;;;9.09;83.24;98163.84;4997512;28;20042;-84
2020/12/10 10:53:05;;;;;;;26.05;12.82;;;;;;;9.05;84.42;98152.78;4994538;28;20034;-84
2020/12/10 10:56:25;;;;;;;18.63;11.57;;;;;;;8.76;84.86;98155.44;4987778;28;20398;-83
2020/12/10 10:59:45;;;;;;;20.08;12.00;;;;;;;8.85;84.10;98151.69;4983864;28;20046;-85
2020/12/10 11:03:11;;;;;;;22.60;12.27;;;;;;;9.18;83.01;98143.34;4995234;28;20046;-86
2020/12/10 11:06:24;;;;;;;20.20;11.77;;;;;;;9.01;83.88;98145.34;4956191;28;20039;-84
2020/12/10 11:09:35;;;;;;;20.88;11.77;;;;;;;9.08;83.76;98148.13;4955909;28;20420;-84
2020/12/10 11:12:48;;;;;;;21.67;12.57;;;;;;;9.27;82.34;98150.19;4950369;28;20043;-83
2020/12/10 11:15:59;;;;;;;24.50;13.65;;;;;;;9.14;81.90;98148.19;4944919;28;20051;-84
2020/12/10 11:19:12;;;;;;;33.63;12.75;;;;;;;9.08;82.72;98140.13;4956098;28;20548;-84
2020/12/10 11:22:26;;;;;;;24.70;13.40;;;;;;;9.23;82.53;98144.41;4960718;28;20067;-84
2020/12/10 11:25:41;;;;;;;;;;;;;;;9.17;82.56;98145.16;4960818;28;20047;-86
2020/12/10 11:28:52;;;;;;;23.98;14.02;;;;;;;9.16;83.22;98146.16;4955780;28;20294;-84
2020/12/10 11:32:06;;;;;;;28.25;15.65;;;;;;;9.25;82.79;98121.09;4945023;28;20043;-85
2020/12/10 11:35:18;;;;;;;25.73;14.10;;;;;;;9.11;83.30;98132.59;4944562;29;20054;-84
2020/12/10 11:38:36;;;;;;;35.47;16.50;;;;;;;9.29;83.23;98126.88;4956706;28;20386;-84
2020/12/10 11:41:48;;;;;;;33.83;18.08;;;;;;;9.38;81.70;98121.25;4932991;29;20039;-84
2020/12/10 11:45:00;;;;;;;35.28;19.35;;;;;;;9.25;82.72;98117.63;4955781;28;20047;-84
2020/12/10 11:48:29;;;;;;;41.28;22.08;;;;;;;9.00;84.24;98117.13;4944815;29;20058;-84
2020/12/10 11:51:41;;;;;;;38.58;23.75;;;;;;;8.96;84.11;98121.16;4948386;28;20051;-85
2020/12/10 11:54:53;;;;;;;37.17;21.83;;;;;;;9.03;84.57;98122.06;4944307;28;20055;-85
2020/12/10 11:58:08;;;;;;;38.38;20.27;;;;;;;9.03;84.04;98119.41;4955123;28;20051;-85
2020/12/10 12:01:20;;;;;;;39.90;21.55;;;;;;;8.98;84.45;98119.94;4944506;29;20054;-86
2020/12/10 12:04:30;;;;;;;;;;;;;;;8.95;84.63;98120.34;4959226;28;20698;-85
2020/12/10 12:08:03;;;;;;;36.17;20.48;;;;;;;9.01;85.13;98108.97;4993587;28;19921;-85
2020/12/10 12:11:21;;;;;;;36.20;21.25;;;;;;;9.02;85.07;98117.75;4987700;28;20050;-87
2020/12/10 12:15:01;;;;;;;34.70;20.67;;;;;;;9.02;84.97;98109.78;4982205;28;20050;-85
2020/12/10 12:18:12;;;;;;;41.42;21.73;;;;;;;9.05;86.09;98112.91;4983224;28;20034;-85
2020/12/10 12:21:59;;;;;;;34.00;20.05;;;;;;;9.15;83.68;98109.94;4971314;28;20494;-85
2020/12/10 12:25:13;;;;;;;39.78;21.92;;;;;;;9.18;83.41;98112.25;4991801;28;20034;-85
2020/12/10 12:28:25;;;;;;;37.03;20.38;;;;;;;9.07;84.98;98106.56;4982177;28;20054;-84
2020/12/10 12:31:51;;;;;;;37.40;21.65;;;;;;;9.06;84.66;98116.38;4983322;28;20039;-84
2020/12/10 12:35:14;;;;;;;36.15;20.42;;;;;;;9.14;84.23;98107.47;4995892;28;20042;-85
2020/12/10 12:38:44;;;;;;;38.28;21.05;;;;;;;9.13;84.43;98114.63;4987258;28;20050;-84
2020/12/10 12:41:57;;;;;;;37.80;21.92;;;;;;;8.82;85.74;98104.22;4985037;28;20046;-84
2020/12/10 12:45:09;;;;;;;37.05;20.83;;;;;;;8.94;86.49;98104.56;4992562;28;20042;-85
2020/12/10 12:48:23;;;;;;;39.90;22.20;;;;;;;9.09;85.63;98109.88;4971429;28;20497;-84
2020/12/10 12:51:35;;;;;;;40.60;21.67;;;;;;;9.15;85.50;98098.47;4980768;28;20065;-85
2020/12/10 12:55:13;;;;;;;38.42;21.13;;;;;;;9.60;84.90;98097.34;4993045;28;20046;-85
2020/12/10 12:58:25;;;;;;;34.53;21.08;;;;;;;10.01;84.20;98090.34;4985036;28;20046;-86
2020/12/10 13:01:49;;;;;;;36.65;21.15;;;;;;;10.05;85.20;98088.94;4972132;28;20050;-85
2020/12/10 13:05:00;;;;;;;36.70;21.27;;;;;;;9.94;83.74;98088.63;4980230;28;20054;-86
2020/12/10 13:08:12;;;;;;;31.88;19.48;;;;;;;9.96;83.07;98089.28;4992743;28;20053;-85
2020/12/10 13:11:28;;;;;;;32.83;19.75;;;;;;;10.06;82.15;98087.91;4981433;28;20042;-84
2020/12/10 13:14:59;;;;;;;33.75;20.58;;;;;;;10.20;82.45;98082.72;4983012;28;20050;-85
2020/12/10 13:18:11;;;;;;;34.75;21.23;;;;;;;10.42;82.39;98081.66;4962917;28;20049;-85
2020/12/10 13:21:26;;;;;;;36.33;20.95;;;;;;;10.33;82.88;98077.50;4992184;28;20042;-84
2020/12/10 13:24:38;;;;;;;36.78;21.13;;;;;;;10.44;82.23;98082.28;4969651;28;20429;-85
2020/12/10 13:27:51;;;;;;;38.22;21.65;;;;;;;10.44;82.08;98074.28;4991987;28;20046;-85
2020/12/10 13:31:07;;;;;;;37.05;21.27;;;;;;;10.35;81.98;98075.47;4981188;28;20038;-85
2020/12/10 13:34:22;;;;;;;31.65;19.15;;;;;;;10.31;82.37;98080.34;4970303;28;20061;-85
2020/12/10 13:37:55;;;;;;;29.95;19.27;;;;;;;10.88;81.91;98075.75;4981118;28;20042;-85
2020/12/10 13:41:13;;;;;;;33.42;19.70;;;;;;;11.15;77.33;98077.50;4988990;28;20057;-85
2020/12/10 13:44:31;;;;;;;37.25;22.48;;;;;;;10.58;78.89;98072.53;4970846;28;20042;-85
2020/12/10 13:47:45;;;;;;;34.53;20.48;;;;;;;10.50;79.19;98078.84;4991498;28;20496;-85
2020/12/10 13:50:55;;;;;;;32.67;20.27;;;;;;;10.45;80.32;98063.44;4979513;28;20041;-85
2020/12/10 13:54:07;;;;;;;34.55;21.85;;;;;;;10.67;79.94;98066.84;4981278;28;20500;-86
2020/12/10 13:57:38;;;;;;;32.95;20.17;;;;;;;10.71;78.35;98067.28;4981800;28;20065;-85
2020/12/10 14:00:50;;;;;;;35.05;19.92;;;;;;;10.40;78.76;98067.69;4980545;28;20042;-85
2020/12/10 14:04:22;;;;;;;34.00;20.27;;;;;;;10.43;79.73;98077.97;4991979;28;20039;-85
2020/12/10 14:07:51;;;;;;;34.40;20.13;;;;;;;10.33;80.16;98072.16;4995375;28;20038;-85
2020/12/10 14:11:08;;;;;;;29.67;19.53;;;;;;;10.23;80.03;98074.38;5002337;28;20045;-85
2020/12/10 14:14:22;;;;;;;50.97;22.77;;;;;;;10.09;80.00;98076.06;4985281;28;20054;-86
2020/12/10 14:17:35;;;;;;;42.28;21.63;;;;;;;10.17;79.96;98078.56;4974166;28;20046;-86
2020/12/10 14:20:47;;;;;;;39.50;22.15;;;;;;;10.10;79.44;98078.53;4983529;28;20054;-85
2020/12/10 14:24:05;;;;;;;38.83;23.15;;;;;;;9.98;79.72;98080.09;4995870;28;20047;-85
2020/12/10 14:27:25;;;;;;;37.10;22.25;;;;;;;9.81;79.88;98080.53;4984302;28;20043;-85
2020/12/10 14:30:57;;;;;;;39.10;23.20;;;;;;;9.76;80.63;98089.94;4983987;28;20038;-85
2020/12/10 14:34:26;;;;;;;39.58;22.50;;;;;;;9.49;81.72;98089.84;4987742;28;20065;-85
2020/12/10 14:37:42;;;;;;;46.83;23.42;;;;;;;9.36;82.71;98091.34;4995474;28;20042;-85
2020/12/10 14:40:55;;;;;;;45.38;23.58;;;;;;;9.04;84.82;98097.13;4995288;28;20057;-85
2020/12/10 14:44:13;;;;;;;40.20;22.40;;;;;;;9.13;84.55;98096.00;4984314;28;20038;-85
2020/12/10 14:47:25;;;;;;;44.92;23.02;;;;;;;9.12;84.73;98099.69;4984365;28;20043;-84
2020/12/10 14:50:36;;;;;;;47.15;22.58;;;;;;;9.08;84.58;98093.09;4988106;28;20498;-84
2020/12/10 14:54:07;;;;;;;51.65;27.48;;;;;;;9.08;85.15;98108.22;4984484;28;20039;-85
2020/12/10 14:57:19;;;;;;;55.75;30.50;;;;;;;9.08;84.96;98103.72;4987463;28;20118;-85
2020/12/10 15:00:34;;;;;;;55.15;28.70;;;;;;;9.02;85.53;98107.13;4988086;28;20057;-87
2020/12/10 15:03:45;;;;;;;42.38;23.70;;;;;;;8.89;86.11;98113.09;4984905;28;20045;-85
2020/12/10 15:06:57;;;;;;;55.10;29.25;;;;;;;8.86;87.06;98108.13;4984074;28;20065;-85
2020/12/10 15:10:10;;;;;;;52.40;28.08;;;;;;;8.77;87.33;98108.44;4983770;28;20046;-85
2020/12/10 15:13:26;;;;;;;51.70;30.38;;;;;;;8.84;86.94;98112.84;4983578;28;20053;-85
2020/12/10 15:16:40;;;;;;;47.15;25.50;;;;;;;8.67;87.68;98117.50;4972486;28;20058;-85
2020/12/10 15:19:53;;;;;;;62.55;28.88;;;;;;;8.70;88.17;98118.97;4982633;28;20367;-85
2020/12/10 15:23:07;;;;;;;51.42;27.83;;;;;;;8.66;88.24;98121.16;4977643;28;20073;-85
2020/12/10 15:26:35;;;;;;;51.80;27.13;;;;;;;8.65;88.09;98122.19;4975418;28;20042;-85